createdAt,value
2019-05-12T00:00:09.988Z,18.40
2019-05-12T00:01:09.971Z,17.70
2019-05-12T00:02:09.960Z,18.90
2019-05-12T00:03:09.959Z,21.70
2019-05-12T00:04:09.939Z,16.80
2019-05-12T00:05:09.919Z,17.10
2019-05-12T00:06:09.910Z,20.30
2019-05-12T00:07:09.899Z,18.00
2019-05-12T00:08:09.909Z,16.30
2019-05-12T00:09:09.878Z,16.70
2019-05-12T00:10:09.869Z,16.90
2019-05-12T00:11:09.858Z,19.80
2019-05-12T00:12:09.849Z,17.80
2019-05-12T00:13:09.848Z,17.90
2019-05-12T00:14:09.835Z,19.70
2019-05-12T00:15:09.818Z,19.10
2019-05-12T00:16:09.807Z,15.60
2019-05-12T00:17:09.798Z,19.00
2019-05-12T00:18:09.811Z,24.10
2019-05-12T00:19:09.777Z,22.90
2019-05-12T00:20:09.767Z,20.00
2019-05-12T00:21:09.757Z,21.90
2019-05-12T00:22:09.746Z,19.00
2019-05-12T00:23:23.722Z,20.00
2019-05-12T00:24:10.727Z,19.00
2019-05-12T00:25:09.716Z,20.30
2019-05-12T00:26:09.705Z,17.10
2019-05-12T00:27:09.696Z,20.10
2019-05-12T00:28:09.696Z,21.10
2019-05-12T00:29:09.675Z,21.60
2019-05-12T00:30:10.259Z,22.90
2019-05-12T00:31:09.647Z,20.30
2019-05-12T00:32:09.646Z,20.80
2019-05-12T00:33:09.776Z,20.60
2019-05-12T00:34:09.615Z,21.60
2019-05-12T00:35:09.643Z,22.90
2019-05-12T00:36:09.596Z,19.90
2019-05-12T00:37:09.586Z,17.10
2019-05-12T00:38:09.616Z,16.80
2019-05-12T00:39:09.564Z,18.90
2019-05-12T00:40:09.555Z,18.70
2019-05-12T00:41:09.543Z,16.20
2019-05-12T00:42:09.534Z,19.80
2019-05-12T00:43:09.535Z,19.10
2019-05-12T00:44:09.513Z,22.70
2019-05-12T00:45:09.503Z,23.60
2019-05-12T00:46:09.496Z,17.70
2019-05-12T00:47:09.483Z,19.60
2019-05-12T00:48:09.739Z,17.90
2019-05-12T00:49:09.465Z,18.30
2019-05-12T00:50:09.452Z,17.70
2019-05-12T00:51:09.432Z,18.30
2019-05-12T00:52:09.422Z,16.80
2019-05-12T00:53:09.638Z,17.50
2019-05-12T00:54:09.499Z,17.80
2019-05-12T00:55:09.392Z,19.80
2019-05-12T00:56:09.386Z,13.70
2019-05-12T00:57:09.372Z,19.30
2019-05-12T00:58:09.380Z,18.40
2019-05-12T00:59:09.352Z,16.10
2019-05-12T01:00:09.342Z,17.40
2019-05-12T01:01:09.375Z,19.80
2019-05-12T01:02:09.330Z,18.50
2019-05-12T01:03:09.343Z,17.70
2019-05-12T01:04:09.301Z,16.80
2019-05-12T01:05:09.289Z,14.80
2019-05-12T01:06:09.280Z,15.10
2019-05-12T01:07:09.269Z,18.60
2019-05-12T01:08:09.726Z,16.10
2019-05-12T01:09:09.252Z,17.70
2019-05-12T01:10:09.239Z,20.70
2019-05-12T01:11:09.235Z,17.90
2019-05-12T01:12:09.219Z,17.10
2019-05-12T01:13:09.276Z,18.60
2019-05-12T01:14:09.209Z,17.80
2019-05-12T01:15:09.182Z,19.30
2019-05-12T01:16:09.169Z,18.50
2019-05-12T01:17:09.158Z,17.90
2019-05-12T01:18:09.707Z,19.50
2019-05-12T01:19:09.149Z,18.20
2019-05-12T01:20:09.128Z,21.90
2019-05-12T01:21:09.118Z,19.60
2019-05-12T01:22:09.110Z,19.60
2019-05-12T01:23:09.234Z,18.30
2019-05-12T01:24:09.219Z,23.80
2019-05-12T01:25:09.078Z,17.90
2019-05-12T01:26:09.068Z,17.60
2019-05-12T01:27:09.058Z,20.20
2019-05-12T01:28:09.056Z,19.70
2019-05-12T01:29:09.047Z,17.90
2019-05-12T01:30:09.086Z,17.90
2019-05-12T01:31:09.017Z,18.20
2019-05-12T01:32:09.006Z,19.10
2019-05-12T01:33:09.129Z,20.70
2019-05-12T01:34:08.996Z,17.80
2019-05-12T01:35:08.981Z,17.50
2019-05-12T01:36:08.966Z,19.00
2019-05-12T01:37:08.955Z,21.60
2019-05-12T01:38:08.961Z,18.20
2019-05-12T01:39:08.947Z,18.60
2019-05-12T01:40:09.275Z,24.60
2019-05-12T01:41:08.905Z,21.80
2019-05-12T01:42:09.169Z,22.50
2019-05-12T01:43:09.119Z,22.50
2019-05-12T01:44:09.070Z,18.80
2019-05-12T01:45:09.459Z,18.20
2019-05-12T01:46:08.856Z,17.70
2019-05-12T01:47:08.845Z,18.00
2019-05-12T01:48:09.385Z,18.80
2019-05-12T01:49:08.842Z,16.60
2019-05-12T01:50:09.337Z,17.00
2019-05-12T01:51:08.804Z,15.30
2019-05-12T01:52:08.794Z,18.00
2019-05-12T01:53:08.961Z,19.70
2019-05-12T01:54:14.589Z,16.30
2019-05-12T01:55:09.755Z,16.90
2019-05-12T01:56:08.753Z,19.90
2019-05-12T01:57:08.735Z,16.90
2019-05-12T01:58:08.927Z,17.90
2019-05-12T01:59:08.730Z,20.70
2019-05-12T02:00:08.703Z,17.70
2019-05-12T02:01:08.693Z,18.20
2019-05-12T02:02:08.708Z,17.30
2019-05-12T02:03:09.491Z,18.10
2019-05-12T02:04:08.671Z,17.00
2019-05-12T02:05:08.887Z,16.30
2019-05-12T02:06:08.641Z,20.60
2019-05-12T02:07:08.640Z,17.50
2019-05-12T02:08:09.738Z,19.40
2019-05-12T02:09:08.631Z,19.90
2019-05-12T02:10:09.310Z,16.00
2019-05-12T02:11:08.593Z,20.60
2019-05-12T02:12:08.579Z,21.00
2019-05-12T02:13:08.572Z,22.20
2019-05-12T02:14:09.242Z,21.10
2019-05-12T02:15:08.558Z,21.30
2019-05-12T02:16:08.541Z,20.70
2019-05-12T02:17:08.826Z,20.00
2019-05-12T02:18:09.245Z,20.20
2019-05-12T02:19:09.216Z,20.90
2019-05-12T02:20:08.500Z,21.50
2019-05-12T02:21:08.514Z,20.90
2019-05-12T02:22:08.540Z,23.00
2019-05-12T02:23:09.103Z,20.10
2019-05-12T02:24:23.034Z,16.70
2019-05-12T02:25:09.446Z,18.10
2019-05-12T02:26:08.457Z,20.00
2019-05-12T02:27:08.428Z,19.80
2019-05-12T02:28:09.248Z,20.30
2019-05-12T02:29:08.419Z,18.90
2019-05-12T02:30:10.027Z,18.50
2019-05-12T02:31:09.526Z,21.50
2019-05-12T02:32:08.379Z,20.90
2019-05-12T02:33:08.369Z,17.60
2019-05-12T02:34:08.401Z,18.50
2019-05-12T02:35:08.349Z,19.20
2019-05-12T02:36:08.337Z,17.80
2019-05-12T02:37:08.329Z,19.50
2019-05-12T02:38:08.320Z,23.40
2019-05-12T02:39:08.344Z,17.80
2019-05-12T02:40:08.291Z,23.20
2019-05-12T02:41:08.290Z,16.60
2019-05-12T02:42:08.277Z,17.40
2019-05-12T02:43:08.256Z,17.20
2019-05-12T02:44:08.248Z,19.10
2019-05-12T02:45:08.263Z,21.40
2019-05-12T02:46:08.226Z,22.50
2019-05-12T02:47:08.216Z,22.60
2019-05-12T02:48:08.206Z,18.00
2019-05-12T02:49:08.195Z,19.20
2019-05-12T02:50:08.195Z,18.90
2019-05-12T02:51:08.177Z,18.80
2019-05-12T02:52:08.171Z,19.00
2019-05-12T02:53:08.228Z,20.30
2019-05-12T02:54:08.146Z,17.10
2019-05-12T02:55:08.144Z,21.10
2019-05-12T02:56:08.132Z,20.40
2019-05-12T02:57:08.115Z,20.90
2019-05-12T02:58:08.104Z,19.20
2019-05-12T02:59:08.097Z,18.00
2019-05-12T03:00:08.098Z,18.80
2019-05-12T03:01:08.072Z,17.20
2019-05-12T03:02:08.062Z,17.40
2019-05-12T03:03:08.085Z,18.40
2019-05-12T03:04:08.049Z,19.50
2019-05-12T03:05:08.041Z,18.50
2019-05-12T03:06:08.013Z,20.20
2019-05-12T03:07:08.002Z,18.70
2019-05-12T03:08:08.010Z,21.10
2019-05-12T03:09:07.994Z,19.10
2019-05-12T03:10:07.991Z,18.40
2019-05-12T03:11:07.963Z,17.00
2019-05-12T03:12:07.953Z,18.90
2019-05-12T03:13:07.943Z,16.50
2019-05-12T03:14:07.938Z,16.80
2019-05-12T03:15:07.931Z,17.90
2019-05-12T03:16:07.913Z,20.70
2019-05-12T03:17:07.897Z,18.20
2019-05-12T03:18:07.895Z,21.60
2019-05-12T03:19:07.883Z,18.20
2019-05-12T03:20:07.890Z,18.20
2019-05-12T03:21:07.854Z,17.30
2019-05-12T03:22:07.842Z,17.60
2019-05-12T03:23:07.831Z,19.60
2019-05-12T03:24:07.819Z,17.40
2019-05-12T03:25:19.992Z,18.00
2019-05-12T03:26:08.800Z,19.70
2019-05-12T03:27:07.789Z,20.60
2019-05-12T03:28:09.102Z,18.80
2019-05-12T03:29:07.774Z,17.50
2019-05-12T03:30:12.058Z,20.40
2019-05-12T03:31:08.998Z,17.20
2019-05-12T03:32:08.762Z,18.40
2019-05-12T03:33:10.518Z,21.20
2019-05-12T03:34:10.163Z,17.50
2019-05-12T03:35:09.056Z,21.10
2019-05-12T03:36:09.906Z,18.10
2019-05-12T03:37:08.614Z,20.70
2019-05-12T03:38:07.670Z,20.50
2019-05-12T03:39:07.657Z,20.90
2019-05-12T03:40:07.656Z,21.90
2019-05-12T03:41:07.657Z,21.20
2019-05-12T03:42:07.628Z,21.50
2019-05-12T03:43:07.619Z,20.50
2019-05-12T03:44:07.609Z,19.60
2019-05-12T03:45:07.597Z,21.90
2019-05-12T03:46:07.599Z,20.20
2019-05-12T03:47:07.576Z,25.70
2019-05-12T03:48:07.567Z,22.70
2019-05-12T03:49:07.559Z,20.80
2019-05-12T03:50:07.539Z,25.00
2019-05-12T03:51:07.537Z,22.90
2019-05-12T03:52:07.515Z,21.70
2019-05-12T03:53:10.827Z,21.90
2019-05-12T03:54:07.517Z,21.50
2019-05-12T03:55:26.266Z,23.00
2019-05-12T03:56:08.485Z,24.80
2019-05-12T03:57:07.463Z,27.50
2019-05-12T03:58:07.455Z,26.80
2019-05-12T03:59:07.448Z,24.60
2019-05-12T04:00:07.454Z,26.80
2019-05-12T04:01:07.434Z,21.90
2019-05-12T04:02:07.415Z,22.20
2019-05-12T04:03:07.394Z,22.30
2019-05-12T04:04:07.384Z,26.10
2019-05-12T04:05:07.379Z,23.70
2019-05-12T04:06:07.389Z,23.80
2019-05-12T04:07:07.358Z,22.50
2019-05-12T04:08:07.344Z,27.50
2019-05-12T04:09:07.361Z,21.90
2019-05-12T04:10:07.327Z,25.80
2019-05-12T04:11:07.327Z,24.50
2019-05-12T04:12:07.303Z,26.10
2019-05-12T04:13:07.292Z,22.20
2019-05-12T04:14:07.287Z,23.50
2019-05-12T04:15:07.278Z,27.10
2019-05-12T04:16:07.270Z,26.70
2019-05-12T04:17:07.242Z,25.80
2019-05-12T04:18:07.234Z,24.40
2019-05-12T04:19:07.228Z,23.90
2019-05-12T04:20:07.223Z,26.20
2019-05-12T04:21:07.253Z,31.20
2019-05-12T04:22:07.200Z,31.20
2019-05-12T04:23:07.275Z,29.00
2019-05-12T04:24:07.177Z,27.00
2019-05-12T04:25:07.161Z,25.60
2019-05-12T04:26:12.344Z,26.90
2019-05-12T04:27:08.148Z,28.20
2019-05-12T04:28:07.130Z,27.50
2019-05-12T04:29:07.123Z,26.30
2019-05-12T04:30:07.106Z,22.40
2019-05-12T04:31:07.112Z,24.80
2019-05-12T04:32:07.090Z,23.40
2019-05-12T04:33:07.070Z,27.30
2019-05-12T04:34:07.069Z,28.40
2019-05-12T04:35:07.067Z,25.10
2019-05-12T04:36:07.051Z,28.50
2019-05-12T04:37:07.099Z,28.20
2019-05-12T04:38:07.032Z,28.20
2019-05-12T04:39:07.030Z,27.80
2019-05-12T04:40:07.002Z,27.00
2019-05-12T04:41:07.000Z,28.40
2019-05-12T04:42:06.969Z,25.20
2019-05-12T04:43:07.085Z,21.40
2019-05-12T04:44:07.002Z,23.70
2019-05-12T04:45:06.939Z,21.80
2019-05-12T04:46:06.936Z,25.60
2019-05-12T04:47:06.945Z,30.60
2019-05-12T04:48:06.934Z,31.20
2019-05-12T04:49:06.911Z,30.20
2019-05-12T04:50:06.887Z,31.00
2019-05-12T04:51:06.877Z,33.90
2019-05-12T04:52:06.876Z,36.40
2019-05-12T04:53:07.086Z,35.00
2019-05-12T04:54:06.880Z,27.10
2019-05-12T04:55:06.836Z,31.00
2019-05-12T04:56:15.631Z,31.40
2019-05-12T04:57:07.828Z,30.10
2019-05-12T04:58:06.806Z,26.50
2019-05-12T04:59:06.796Z,23.10
2019-05-12T05:00:06.800Z,24.20
2019-05-12T05:01:06.787Z,23.30
2019-05-12T05:02:06.778Z,28.40
2019-05-12T05:03:06.753Z,24.70
2019-05-12T05:04:06.734Z,23.20
2019-05-12T05:05:06.740Z,22.10
2019-05-12T05:06:06.714Z,23.80
2019-05-12T05:07:06.727Z,25.90
2019-05-12T05:08:06.709Z,24.40
2019-05-12T05:09:06.684Z,29.30
2019-05-12T05:10:06.674Z,26.90
2019-05-12T05:11:06.664Z,26.00
2019-05-12T05:12:06.664Z,25.50
2019-05-12T05:13:06.642Z,28.20
2019-05-12T05:14:06.637Z,27.90
2019-05-12T05:15:06.625Z,26.00
2019-05-12T05:16:06.616Z,33.00
2019-05-12T05:17:06.620Z,30.20
2019-05-12T05:18:07.019Z,28.20
2019-05-12T05:19:06.582Z,28.60
2019-05-12T05:20:06.572Z,25.30
2019-05-12T05:21:06.562Z,23.60
2019-05-12T05:22:06.563Z,25.40
2019-05-12T05:23:06.542Z,26.40
2019-05-12T05:24:06.529Z,28.30
2019-05-12T05:25:06.521Z,22.20
2019-05-12T05:26:20.674Z,24.90
2019-05-12T05:27:07.511Z,23.80
2019-05-12T05:28:06.483Z,23.20
2019-05-12T05:29:06.480Z,22.90
2019-05-12T05:30:06.471Z,22.80
2019-05-12T05:31:06.460Z,24.60
2019-05-12T05:32:06.462Z,22.50
2019-05-12T05:33:06.441Z,22.90
2019-05-12T05:34:06.430Z,21.70
2019-05-12T05:35:07.783Z,21.60
2019-05-12T05:36:08.930Z,23.10
2019-05-12T05:37:07.411Z,23.00
2019-05-12T05:38:10.768Z,24.30
2019-05-12T05:39:07.385Z,22.60
2019-05-12T05:40:06.370Z,23.20
2019-05-12T05:41:10.428Z,25.10
2019-05-12T05:42:06.359Z,23.90
2019-05-12T05:43:18.248Z,31.50
2019-05-12T05:44:07.320Z,30.20
2019-05-12T05:45:10.016Z,28.90
2019-05-12T05:46:08.151Z,23.80
2019-05-12T05:47:06.310Z,25.80
2019-05-12T05:48:09.979Z,25.70
2019-05-12T05:49:06.279Z,26.10
2019-05-12T05:50:06.267Z,26.10
2019-05-12T05:51:09.065Z,25.90
2019-05-12T05:52:06.248Z,25.50
2019-05-12T05:53:09.316Z,23.30
2019-05-12T05:54:07.227Z,23.70
2019-05-12T05:55:14.475Z,24.00
2019-05-12T05:56:07.207Z,23.00
2019-05-12T05:57:06.380Z,22.90
2019-05-12T05:58:10.336Z,24.10
2019-05-12T05:59:06.177Z,25.70
2019-05-12T06:00:07.205Z,25.20
2019-05-12T06:01:08.336Z,20.10
2019-05-12T06:02:06.146Z,22.90
2019-05-12T06:03:06.262Z,25.90
2019-05-12T06:04:08.629Z,23.90
2019-05-12T06:05:06.118Z,23.50
2019-05-12T06:06:10.400Z,22.70
2019-05-12T06:07:07.095Z,23.50
2019-05-12T06:08:09.608Z,26.20
2019-05-12T06:09:07.079Z,24.90
2019-05-12T06:10:06.074Z,25.60
2019-05-12T06:11:08.560Z,25.80
2019-05-12T06:12:09.773Z,24.30
2019-05-12T06:13:06.058Z,24.40
2019-05-12T06:14:11.440Z,22.00
2019-05-12T06:15:08.965Z,20.70
2019-05-12T06:16:06.005Z,22.00
2019-05-12T06:17:06.005Z,22.90
2019-05-12T06:18:06.004Z,21.00
2019-05-12T06:19:05.982Z,19.50
2019-05-12T06:20:05.980Z,19.70
2019-05-12T06:21:05.964Z,25.10
2019-05-12T06:22:09.119Z,28.30
2019-05-12T06:23:06.953Z,25.30
2019-05-12T06:24:08.706Z,23.20
2019-05-12T06:25:06.934Z,23.80
2019-05-12T06:26:05.942Z,22.90
2019-05-12T06:27:15.071Z,22.90
2019-05-12T06:28:08.861Z,23.80
2019-05-12T06:29:05.882Z,23.50
2019-05-12T06:30:06.452Z,20.90
2019-05-12T06:31:05.861Z,23.20
2019-05-12T06:32:10.643Z,21.60
2019-05-12T06:33:06.853Z,21.30
2019-05-12T06:34:13.967Z,19.20
2019-05-12T06:35:06.822Z,18.80
2019-05-12T06:36:07.564Z,21.10
2019-05-12T06:37:12.088Z,21.60
2019-05-12T06:38:06.800Z,23.00
2019-05-12T06:39:10.496Z,20.60
2019-05-12T06:40:06.770Z,22.50
2019-05-12T06:41:05.760Z,21.80
2019-05-12T06:42:12.240Z,24.60
2019-05-12T06:43:06.760Z,22.40
2019-05-12T06:44:08.850Z,24.00
2019-05-12T06:45:06.718Z,21.70
2019-05-12T06:46:05.709Z,21.60
2019-05-12T06:47:08.050Z,25.90
2019-05-12T06:48:05.690Z,23.00
2019-05-12T06:49:12.798Z,23.30
2019-05-12T06:50:06.669Z,19.50
2019-05-12T06:51:09.266Z,20.20
2019-05-12T06:52:07.313Z,20.80
2019-05-12T06:53:05.649Z,22.10
2019-05-12T06:54:11.819Z,19.00
2019-05-12T06:55:06.621Z,17.40
2019-05-12T06:56:09.365Z,19.00
2019-05-12T06:57:20.672Z,17.00
2019-05-12T06:58:06.588Z,19.00
2019-05-12T06:59:09.856Z,15.90
2019-05-12T07:00:05.568Z,18.00
2019-05-12T07:01:10.978Z,16.50
2019-05-12T07:02:06.558Z,18.70
2019-05-12T07:03:05.537Z,17.90
2019-05-12T07:04:09.746Z,17.80
2019-05-12T07:05:05.517Z,17.00
2019-05-12T07:06:09.106Z,19.30
2019-05-12T07:07:06.498Z,16.00
2019-05-12T07:08:05.487Z,14.90
2019-05-12T07:09:09.536Z,17.90
2019-05-12T07:10:11.630Z,16.30
2019-05-12T07:11:06.464Z,15.50
2019-05-12T07:12:07.086Z,16.40
2019-05-12T07:13:06.136Z,15.10
2019-05-12T07:14:13.047Z,13.90
2019-05-12T07:15:06.493Z,15.00
2019-05-12T07:16:10.141Z,14.70
2019-05-12T07:17:06.473Z,16.00
2019-05-12T07:18:05.395Z,18.40
2019-05-12T07:19:07.812Z,14.30
2019-05-12T07:20:06.374Z,17.20
2019-05-12T07:21:09.377Z,18.20
2019-05-12T07:22:18.090Z,17.70
2019-05-12T07:23:06.344Z,14.90
2019-05-12T07:24:06.758Z,14.00
2019-05-12T07:25:08.197Z,12.10
2019-05-12T07:26:14.045Z,15.10
2019-05-12T07:27:09.107Z,15.00
2019-05-12T07:28:07.799Z,14.70
2019-05-12T07:29:05.294Z,13.50
2019-05-12T07:30:05.273Z,15.20
2019-05-12T07:31:05.264Z,13.90
2019-05-12T07:32:06.882Z,14.00
2019-05-12T07:33:06.243Z,15.00
2019-05-12T07:34:07.722Z,13.80
2019-05-12T07:35:05.231Z,11.80
2019-05-12T07:36:06.403Z,11.90
2019-05-12T07:37:05.212Z,12.00
2019-05-12T07:38:05.232Z,14.10
2019-05-12T07:39:06.228Z,11.70
2019-05-12T07:40:05.183Z,15.10
2019-05-12T07:41:06.740Z,13.50
2019-05-12T07:42:06.152Z,11.80
2019-05-12T07:43:09.761Z,10.10
2019-05-12T07:44:06.162Z,10.10
2019-05-12T07:45:05.132Z,10.10
2019-05-12T07:46:07.065Z,9.00
2019-05-12T07:47:05.102Z,9.60
2019-05-12T07:48:09.949Z,11.30
2019-05-12T07:49:06.082Z,9.10
2019-05-12T07:50:09.959Z,9.40
2019-05-12T07:51:06.060Z,11.80
2019-05-12T07:52:05.052Z,8.90
2019-05-12T07:53:05.041Z,12.60
2019-05-12T07:54:05.030Z,12.30
2019-05-12T07:55:05.044Z,10.30
2019-05-12T07:56:05.012Z,9.30
2019-05-12T07:57:11.864Z,8.90
2019-05-12T07:58:13.828Z,12.50
2019-05-12T07:59:05.980Z,10.60
2019-05-12T08:00:04.980Z,10.60
2019-05-12T08:01:07.767Z,11.50
2019-05-12T08:02:04.950Z,9.40
2019-05-12T08:03:14.718Z,9.50
2019-05-12T08:04:05.928Z,10.70
2019-05-12T08:05:04.938Z,8.60
2019-05-12T08:06:04.909Z,11.50
2019-05-12T08:07:04.898Z,11.60
2019-05-12T08:08:10.901Z,10.20
2019-05-12T08:09:05.878Z,12.80
2019-05-12T08:10:07.237Z,10.90
2019-05-12T08:11:05.859Z,10.60
2019-05-12T08:12:09.684Z,10.00
2019-05-12T08:13:05.837Z,10.80
2019-05-12T08:14:04.826Z,8.50
2019-05-12T08:15:09.479Z,8.90
2019-05-12T08:16:05.799Z,10.30
2019-05-12T08:17:11.131Z,11.20
2019-05-12T08:18:07.990Z,9.20
2019-05-12T08:19:07.922Z,9.20
2019-05-12T08:20:04.786Z,11.10
2019-05-12T08:21:04.747Z,10.90
2019-05-12T08:22:04.737Z,9.50
2019-05-12T08:23:08.895Z,12.20
2019-05-12T08:24:05.709Z,9.30
2019-05-12T08:25:04.706Z,8.90
2019-05-12T08:26:11.945Z,9.90
2019-05-12T08:27:06.601Z,13.50
2019-05-12T08:28:14.886Z,11.40
2019-05-12T08:29:10.519Z,11.40
2019-05-12T08:30:06.277Z,11.90
2019-05-12T08:31:04.626Z,12.20
2019-05-12T08:32:04.627Z,11.90
2019-05-12T08:33:09.479Z,10.50
2019-05-12T08:34:05.597Z,13.10
2019-05-12T08:35:05.149Z,14.50
2019-05-12T08:36:11.471Z,11.80
2019-05-12T08:37:05.565Z,12.90
2019-05-12T08:38:04.557Z,11.40
2019-05-12T08:39:06.209Z,8.50
2019-05-12T08:40:07.644Z,10.90
2019-05-12T08:41:04.526Z,11.10
2019-05-12T08:42:04.514Z,10.20
2019-05-12T08:43:10.013Z,10.90
2019-05-12T08:44:05.485Z,11.00
2019-05-12T08:45:07.979Z,12.60
2019-05-12T08:46:07.016Z,13.30
2019-05-12T08:47:05.454Z,11.90
2019-05-12T08:48:04.444Z,12.20
2019-05-12T08:49:05.327Z,10.50
2019-05-12T08:50:04.919Z,13.40
2019-05-12T08:51:13.614Z,11.70
2019-05-12T08:52:05.393Z,12.90
2019-05-12T08:53:04.808Z,10.80
2019-05-12T08:54:07.818Z,13.10
2019-05-12T08:55:04.454Z,11.30
2019-05-12T08:56:12.698Z,12.10
2019-05-12T08:57:05.334Z,12.00
2019-05-12T08:58:04.339Z,12.60
2019-05-12T08:59:04.515Z,13.70
2019-05-12T09:00:08.622Z,12.40
2019-05-12T09:01:04.512Z,11.80
2019-05-12T09:02:07.269Z,13.20
2019-05-12T09:03:05.272Z,12.80
2019-05-12T09:04:06.693Z,11.80
2019-05-12T09:05:05.251Z,11.80
2019-05-12T09:06:09.105Z,10.60
2019-05-12T09:07:05.222Z,12.20
2019-05-12T09:08:04.219Z,11.90
2019-05-12T09:09:04.213Z,11.70
2019-05-12T09:10:04.302Z,10.90
2019-05-12T09:11:04.205Z,11.20
2019-05-12T09:12:04.171Z,11.10
2019-05-12T09:13:04.339Z,11.60
2019-05-12T09:14:05.867Z,12.70
2019-05-12T09:15:04.822Z,14.30
2019-05-12T09:16:04.414Z,12.50
2019-05-12T09:17:07.279Z,10.60
2019-05-12T09:18:05.007Z,10.60
2019-05-12T09:19:04.922Z,10.50
2019-05-12T09:20:08.381Z,9.70
2019-05-12T09:21:04.080Z,11.20
2019-05-12T09:22:14.468Z,12.60
2019-05-12T09:23:05.171Z,9.50
2019-05-12T09:24:04.382Z,10.10
2019-05-12T09:25:08.274Z,10.60
2019-05-12T09:26:04.218Z,10.20
2019-05-12T09:27:04.989Z,10.90
2019-05-12T09:28:04.017Z,12.20
2019-05-12T09:29:06.974Z,9.80
2019-05-12T09:30:05.377Z,11.30
2019-05-12T09:31:04.968Z,11.90
2019-05-12T09:32:07.376Z,9.80
2019-05-12T09:33:04.929Z,10.50
2019-05-12T09:34:11.505Z,8.20
2019-05-12T09:35:04.910Z,11.80
2019-05-12T09:36:04.398Z,10.40
2019-05-12T09:37:04.172Z,10.40
2019-05-12T09:38:06.092Z,13.50
2019-05-12T09:39:05.771Z,9.20
2019-05-12T09:40:04.634Z,12.70
2019-05-12T09:41:05.421Z,10.60
2019-05-12T09:42:03.971Z,11.70
2019-05-12T09:43:06.395Z,12.70
2019-05-12T09:44:04.807Z,9.60
2019-05-12T09:45:06.029Z,11.60
2019-05-12T09:46:04.788Z,11.10
2019-05-12T09:47:04.382Z,10.10
2019-05-12T09:48:08.745Z,11.10
2019-05-12T09:49:04.737Z,10.20
2019-05-12T09:50:04.321Z,9.80
2019-05-12T09:51:05.819Z,10.20
2019-05-12T09:52:03.784Z,12.00
2019-05-12T09:53:07.048Z,10.50
2019-05-12T09:54:05.348Z,11.10
2019-05-12T09:55:04.268Z,12.20
2019-05-12T09:56:04.515Z,11.70
2019-05-12T09:57:04.388Z,10.20
2019-05-12T09:58:04.164Z,13.40
2019-05-12T09:59:17.210Z,9.70
2019-05-12T10:00:04.642Z,10.10
2019-05-12T10:01:03.697Z,11.40
2019-05-12T10:02:03.835Z,13.40
2019-05-12T10:03:04.827Z,10.10
2019-05-12T10:04:03.638Z,11.00
2019-05-12T10:05:04.041Z,18.90
2019-05-12T10:06:03.802Z,17.10
2019-05-12T10:07:03.878Z,15.30
2019-05-12T10:08:04.515Z,14.80
2019-05-12T10:09:03.595Z,10.80
2019-05-12T10:10:03.801Z,9.60
2019-05-12T10:11:03.835Z,8.70
2019-05-12T10:12:05.519Z,9.70
2019-05-12T10:13:04.649Z,9.00
2019-05-12T10:14:06.505Z,9.30
2019-05-12T10:15:04.496Z,9.90
2019-05-12T10:16:04.989Z,9.00
2019-05-12T10:17:04.426Z,11.60
2019-05-12T10:18:06.414Z,11.30
2019-05-12T10:19:04.411Z,9.70
2019-05-12T10:20:03.401Z,9.40
2019-05-12T10:21:03.393Z,7.70
2019-05-12T10:22:03.381Z,8.00
2019-05-12T10:23:04.419Z,8.50
2019-05-12T10:24:05.050Z,9.90
2019-05-12T10:25:04.046Z,9.70
2019-05-12T10:26:09.959Z,8.40
2019-05-12T10:27:04.314Z,8.00
2019-05-12T10:28:11.411Z,7.90
2019-05-12T10:29:16.295Z,7.70
2019-05-12T10:30:11.857Z,6.40
2019-05-12T10:31:04.323Z,11.90
2019-05-12T10:32:04.017Z,8.30
2019-05-12T10:33:03.978Z,7.50
2019-05-12T10:34:03.450Z,8.70
2019-05-12T10:35:03.222Z,10.20
2019-05-12T10:36:06.847Z,9.90
2019-05-12T10:37:04.271Z,7.40
2019-05-12T10:38:06.252Z,6.40
2019-05-12T10:39:04.312Z,5.80
2019-05-12T10:40:03.742Z,8.70
2019-05-12T10:41:04.254Z,7.00
2019-05-12T10:42:03.160Z,7.90
2019-05-12T10:43:04.484Z,7.40
2019-05-12T10:44:04.096Z,6.30
2019-05-12T10:45:04.244Z,8.10
2019-05-12T10:46:04.220Z,5.90
2019-05-12T10:47:04.460Z,7.30
2019-05-12T10:48:03.613Z,6.70
2019-05-12T10:49:03.944Z,9.00
2019-05-12T10:50:03.051Z,7.30
2019-05-12T10:51:03.050Z,6.00
2019-05-12T10:52:03.937Z,9.60
2019-05-12T10:53:04.586Z,7.90
2019-05-12T10:54:12.109Z,6.50
2019-05-12T10:55:04.420Z,10.60
2019-05-12T10:56:02.990Z,6.70
2019-05-12T10:57:04.927Z,5.80
2019-05-12T10:58:06.500Z,7.90
2019-05-12T10:59:04.291Z,5.20
2019-05-12T11:00:04.155Z,7.20
2019-05-12T11:01:05.315Z,7.90
2019-05-12T11:02:03.929Z,8.80
2019-05-12T11:03:10.297Z,5.90
2019-05-12T11:04:04.042Z,9.50
2019-05-12T11:05:02.889Z,9.80
2019-05-12T11:06:07.302Z,9.30
2019-05-12T11:07:04.649Z,8.30
2019-05-12T11:08:08.630Z,7.00
2019-05-12T11:09:03.849Z,5.80
2019-05-12T11:10:14.927Z,7.50
2019-05-12T11:11:04.257Z,6.20
2019-05-12T11:12:03.370Z,7.30
2019-05-12T11:13:08.759Z,7.40
2019-05-12T11:14:03.981Z,6.00
2019-05-12T11:15:06.659Z,10.30
2019-05-12T11:16:03.926Z,11.30
2019-05-12T11:17:07.573Z,7.60
2019-05-12T11:18:03.737Z,10.20
2019-05-12T11:19:06.346Z,10.30
2019-05-12T11:20:04.143Z,5.80
2019-05-12T11:21:03.657Z,6.30
2019-05-12T11:22:03.639Z,10.00
2019-05-12T11:23:03.481Z,7.10
2019-05-12T11:24:03.829Z,9.30
2019-05-12T11:25:04.297Z,8.90
2019-05-12T11:26:03.902Z,8.50
2019-05-12T11:27:04.096Z,7.10
2019-05-12T11:28:03.731Z,5.90
2019-05-12T11:29:03.764Z,7.60
2019-05-12T11:30:04.290Z,7.70
2019-05-12T11:31:02.598Z,6.10
2019-05-12T11:32:02.588Z,7.80
2019-05-12T11:33:04.335Z,8.10
2019-05-12T11:34:04.642Z,7.10
2019-05-12T11:35:04.132Z,8.60
2019-05-12T11:36:04.386Z,10.60
2019-05-12T11:37:03.379Z,9.30
2019-05-12T11:38:04.571Z,8.60
2019-05-12T11:39:03.676Z,9.20
2019-05-12T11:40:04.342Z,7.70
2019-05-12T11:41:04.256Z,8.10
2019-05-12T11:42:04.234Z,7.40
2019-05-12T11:43:04.257Z,7.90
2019-05-12T11:44:03.957Z,6.70
2019-05-12T11:45:02.424Z,7.90
2019-05-12T11:46:02.413Z,7.00
2019-05-12T11:47:03.728Z,8.00
2019-05-12T11:48:05.791Z,7.60
2019-05-12T11:49:04.392Z,7.00
2019-05-12T11:50:04.953Z,7.40
2019-05-12T11:51:03.933Z,7.90
2019-05-12T11:52:07.375Z,7.00
2019-05-12T11:53:04.316Z,7.70
2019-05-12T11:54:03.468Z,8.90
2019-05-12T11:55:03.313Z,5.20
2019-05-12T11:56:07.426Z,6.00
2019-05-12T11:57:03.288Z,6.20
2019-05-12T11:58:06.846Z,7.20
2019-05-12T11:59:03.263Z,8.00
2019-05-12T12:00:05.166Z,6.90
2019-05-12T12:01:04.697Z,6.20
2019-05-12T12:02:03.223Z,6.30
2019-05-12T12:03:03.805Z,4.60
2019-05-12T12:04:03.713Z,6.20
2019-05-12T12:05:02.191Z,5.50
2019-05-12T12:06:02.177Z,5.20
2019-05-12T12:07:02.172Z,3.40
2019-05-12T12:08:03.982Z,4.70
2019-05-12T12:09:03.946Z,5.80
2019-05-12T12:10:03.728Z,6.60
2019-05-12T12:11:03.934Z,9.20
2019-05-12T12:12:07.095Z,6.30
2019-05-12T12:13:03.785Z,8.10
2019-05-12T12:14:08.438Z,6.10
2019-05-12T12:15:04.692Z,5.50
2019-05-12T12:16:09.326Z,4.60
2019-05-12T12:17:03.051Z,8.70
2019-05-12T12:18:03.851Z,7.30
2019-05-12T12:19:05.813Z,5.40
2019-05-12T12:20:03.745Z,7.20
2019-05-12T12:21:05.788Z,6.80
2019-05-12T12:22:04.372Z,7.60
2019-05-12T12:23:06.574Z,8.20
2019-05-12T12:24:03.888Z,4.30
2019-05-12T12:25:05.077Z,3.30
2019-05-12T12:26:03.962Z,6.70
2019-05-12T12:27:03.774Z,3.50
2019-05-12T12:28:04.073Z,3.10
2019-05-12T12:29:03.370Z,4.00
2019-05-12T12:30:15.266Z,8.50
2019-05-12T12:31:05.356Z,5.20
2019-05-12T12:32:01.870Z,6.00
2019-05-12T12:33:04.090Z,4.60
2019-05-12T12:34:01.848Z,4.50
2019-05-12T12:35:08.921Z,5.90
2019-05-12T12:36:04.134Z,5.30
2019-05-12T12:37:03.300Z,9.60
2019-05-12T12:38:03.547Z,7.30
2019-05-12T12:39:04.047Z,10.60
2019-05-12T12:40:04.085Z,20.00
2019-05-12T12:41:03.748Z,10.50
2019-05-12T12:42:01.749Z,10.90
2019-05-12T12:43:03.829Z,9.30
2019-05-12T12:44:01.729Z,8.30
2019-05-12T12:45:04.272Z,11.00
2019-05-12T12:46:01.708Z,6.70
2019-05-12T12:47:01.868Z,9.80
2019-05-12T12:48:01.696Z,9.50
2019-05-12T12:49:06.537Z,10.90
2019-05-12T12:50:04.026Z,11.20
2019-05-12T12:51:03.776Z,8.30
2019-05-12T12:52:03.276Z,5.30
2019-05-12T12:53:01.647Z,5.20
2019-05-12T12:54:03.263Z,5.00
2019-05-12T12:55:05.327Z,5.30
2019-05-12T12:56:04.355Z,4.30
2019-05-12T12:57:06.580Z,5.50
2019-05-12T12:58:03.330Z,6.90